createdAt,value
2018-02-27T13:36:40.905Z,56.09
2018-02-27T13:37:42.775Z,56.37
2018-02-27T13:38:44.647Z,56.18
2018-02-27T13:39:46.518Z,56.84
2018-02-27T13:40:48.346Z,56.46
2018-02-27T13:41:50.153Z,57.03
2018-02-27T13:42:52.103Z,56.56
2018-02-27T13:43:53.919Z,56.56
2018-02-27T13:44:55.770Z,56.56
2018-02-27T13:46:09.949Z,56.56
2018-02-27T13:47:11.812Z,56.84
2018-02-27T13:48:13.688Z,56.27
2018-02-27T13:49:15.826Z,55.80
2018-02-27T13:50:17.679Z,55.99
2018-02-27T13:51:19.528Z,55.80
2018-02-27T13:52:21.509Z,55.90
2018-02-27T13:53:23.268Z,55.33
2018-02-27T13:54:25.194Z,55.15
2018-02-27T13:55:39.285Z,54.86
2018-02-27T13:56:41.145Z,54.68
2018-02-27T13:57:43.071Z,54.39
2018-02-27T13:58:44.961Z,54.11
2018-02-27T13:59:46.834Z,54.39
2018-02-27T14:00:48.670Z,54.30
2018-02-27T14:01:50.548Z,54.02
2018-02-27T14:02:52.412Z,53.92
2018-02-27T14:03:54.283Z,54.02
2018-02-27T14:05:08.410Z,54.02
2018-02-27T14:06:10.290Z,53.73
2018-02-27T14:07:12.162Z,53.26
2018-02-27T14:08:14.032Z,53.64
2018-02-27T14:09:15.818Z,52.88
2018-02-27T14:10:17.632Z,52.88
2018-02-27T14:11:19.508Z,52.69
2018-02-27T14:12:21.375Z,52.69
2018-02-27T14:13:23.252Z,53.07
2018-02-27T14:14:37.385Z,52.25
2018-02-27T14:15:39.257Z,52.41
2018-02-27T14:16:41.120Z,52.15
2018-02-27T14:17:42.997Z,52.13
2018-02-27T14:18:44.796Z,52.03
2018-02-27T14:19:46.590Z,52.22
2018-02-27T14:20:48.470Z,52.03
2018-02-27T14:21:50.352Z,51.56
2018-02-27T14:22:52.231Z,51.47
2018-02-27T14:24:06.406Z,51.66
2018-02-27T14:25:08.260Z,51.94
2018-02-27T14:26:10.129Z,52.13
2018-02-27T14:27:12.008Z,51.84
2018-02-27T14:28:13.824Z,51.56
2018-02-27T14:29:15.634Z,51.47
2018-02-27T14:30:17.487Z,51.66
2018-02-27T14:31:19.350Z,52.13
2018-02-27T14:32:21.207Z,52.60
2018-02-27T14:33:35.336Z,52.32
2018-02-27T14:34:37.208Z,52.41
2018-02-27T14:35:39.070Z,52.51
2018-02-27T14:36:40.926Z,52.41
2018-02-27T14:37:42.746Z,52.22
2018-02-27T14:38:44.558Z,52.69
2018-02-27T14:39:46.425Z,53.17
2018-02-27T14:40:48.275Z,52.72
2018-02-27T14:41:50.151Z,52.51
2018-02-27T14:43:04.352Z,52.98
2018-02-27T14:44:06.211Z,53.07
2018-02-27T14:45:08.090Z,52.88
2018-02-27T14:46:09.956Z,52.98
2018-02-27T14:47:11.775Z,52.79
2018-02-27T14:48:13.594Z,52.69
2018-02-27T14:49:15.471Z,52.88
2018-02-27T14:50:17.353Z,53.17
2018-02-27T14:51:19.210Z,53.64
2018-02-27T14:52:33.336Z,53.64
2018-02-27T14:53:35.189Z,53.45
2018-02-27T14:54:37.052Z,53.73
2018-02-27T14:55:38.937Z,53.92
2018-02-27T14:56:40.758Z,53.83
2018-02-27T14:57:42.608Z,53.92
2018-02-27T14:58:44.494Z,53.54
2018-02-27T14:59:46.368Z,53.64
2018-02-27T15:00:48.252Z,53.64
2018-02-27T15:02:02.441Z,53.26
2018-02-27T15:03:04.400Z,53.45
2018-02-27T15:04:06.245Z,53.83
2018-02-27T15:05:08.121Z,53.07
2018-02-27T15:06:09.914Z,53.07
2018-02-27T15:07:11.712Z,53.07
2018-02-27T15:08:13.600Z,53.07
2018-02-27T15:09:15.509Z,53.07
2018-02-27T15:10:17.381Z,52.79
2018-02-27T15:11:31.525Z,53.36
2018-02-27T15:12:33.386Z,53.64
2018-02-27T15:13:35.256Z,53.54
2018-02-27T15:14:37.116Z,53.64
2018-02-27T15:15:38.913Z,53.83
2018-02-27T15:16:40.732Z,53.83
2018-02-27T15:17:42.610Z,53.92
2018-02-27T15:18:44.501Z,54.11
2018-02-27T15:19:46.400Z,54.58
2018-02-27T15:21:00.550Z,54.30
2018-02-27T15:22:02.421Z,54.49
2018-02-27T15:23:04.278Z,54.02
2018-02-27T15:24:06.139Z,54.02
2018-02-27T15:25:07.937Z,54.58
2018-02-27T15:26:09.743Z,54.49
2018-02-27T15:27:11.611Z,54.58
2018-02-27T15:28:13.465Z,54.30
2018-02-27T15:29:15.339Z,54.39
2018-02-27T15:30:29.485Z,54.30
2018-02-27T15:31:31.339Z,54.96
2018-02-27T15:32:33.227Z,54.86
2018-02-27T15:33:35.107Z,54.77
2018-02-27T15:34:36.900Z,55.15
2018-02-27T15:35:38.699Z,55.15
2018-02-27T15:36:40.553Z,55.05
2018-02-27T15:37:42.408Z,55.24
2018-02-27T15:38:44.283Z,55.24
2018-02-27T15:39:58.416Z,55.24
2018-02-27T15:41:00.287Z,55.71
2018-02-27T15:42:02.165Z,55.90
2018-02-27T15:43:04.024Z,56.18
2018-02-27T15:44:05.839Z,56.37
2018-02-27T15:45:07.708Z,56.09
2018-02-27T15:46:09.616Z,56.09
2018-02-27T15:47:11.496Z,56.09
2018-02-27T15:48:13.349Z,56.18
2018-02-27T15:49:27.576Z,56.27
2018-02-27T15:50:29.539Z,56.27
2018-02-27T15:51:31.412Z,55.71
2018-02-27T15:52:33.266Z,55.90
2018-02-27T15:53:35.108Z,55.05
2018-02-27T15:54:36.925Z,55.24
2018-02-27T15:55:38.812Z,55.24
2018-02-27T15:56:40.704Z,55.15
2018-02-27T15:57:42.587Z,54.77
2018-02-27T15:58:56.729Z,55.33
2018-02-27T15:59:58.586Z,55.24
2018-02-27T16:01:00.499Z,55.52
2018-02-27T16:02:02.344Z,55.71
2018-02-27T16:03:04.156Z,55.80
2018-02-27T16:04:05.981Z,55.80
2018-02-27T16:05:07.859Z,56.09
2018-02-27T16:06:09.888Z,55.99
2018-02-27T16:07:12.441Z,56.27
2018-02-27T16:08:26.645Z,55.80
2018-02-27T16:09:28.523Z,56.37
2018-02-27T16:10:30.366Z,56.75
2018-02-27T16:11:32.232Z,57.03
2018-02-27T16:12:34.044Z,56.93
2018-02-27T16:13:35.840Z,57.50
2018-02-27T16:14:37.721Z,57.60
2018-02-27T16:15:39.590Z,57.78
2018-02-27T16:16:41.473Z,57.88
2018-02-27T16:17:55.681Z,57.88
2018-02-27T16:18:57.517Z,57.78
2018-02-27T16:19:59.378Z,57.78
2018-02-27T16:21:01.253Z,57.97
2018-02-27T16:22:03.066Z,57.88
2018-02-27T16:23:04.869Z,58.35
2018-02-27T16:24:06.751Z,58.54
2018-02-27T16:25:08.602Z,58.82
2018-02-27T16:26:10.525Z,58.73
2018-02-27T16:27:24.713Z,59.01
2018-02-27T16:28:26.564Z,58.35
2018-02-27T16:29:28.429Z,58.73
2018-02-27T16:30:30.287Z,58.73
2018-02-27T16:31:32.084Z,58.54
2018-02-27T16:32:33.898Z,58.35
2018-02-27T16:33:35.752Z,57.88
2018-02-27T16:34:37.613Z,57.88
2018-02-27T16:35:39.484Z,57.88
2018-02-27T16:36:53.668Z,57.31
2018-02-27T16:37:55.527Z,57.31
2018-02-27T16:38:57.370Z,57.12
2018-02-27T16:39:59.232Z,57.60
2018-02-27T16:41:01.037Z,57.60
2018-02-27T16:42:02.828Z,57.22
2018-02-27T16:43:04.700Z,57.31
2018-02-27T16:44:06.553Z,57.41
2018-02-27T16:45:08.407Z,57.97
2018-02-27T16:46:22.532Z,58.35
2018-02-27T16:47:24.380Z,58.54
2018-02-27T16:48:26.234Z,58.73
2018-02-27T16:49:28.108Z,58.82
2018-02-27T16:50:29.944Z,58.82
2018-02-27T16:51:31.716Z,59.11
2018-02-27T16:52:33.570Z,59.39
2018-02-27T16:53:35.430Z,59.58
2018-02-27T16:54:37.299Z,60.52
2018-02-27T16:55:51.426Z,61.18
2018-02-27T16:56:53.290Z,61.36
2018-02-27T16:57:55.152Z,61.55
2018-02-27T16:58:57.025Z,61.84
2018-02-27T16:59:58.823Z,62.31
2018-02-27T17:01:00.627Z,61.93
2018-02-27T17:02:02.484Z,62.21
2018-02-27T17:03:04.355Z,62.40
2018-02-27T17:04:06.239Z,62.69
2018-02-27T17:05:20.353Z,62.12
2018-02-27T17:06:22.208Z,62.40
2018-02-27T17:07:24.081Z,61.74
2018-02-27T17:08:25.931Z,61.55
2018-02-27T17:09:27.740Z,61.27
2018-02-27T17:10:29.543Z,60.89
2018-02-27T17:11:31.399Z,60.71
2018-02-27T17:12:33.268Z,60.42
2018-02-27T17:13:35.121Z,60.61
2018-02-27T17:14:49.267Z,60.42
2018-02-27T17:15:51.102Z,60.52
2018-02-27T17:16:52.981Z,60.42
2018-02-27T17:17:54.825Z,60.42
2018-02-27T17:18:56.672Z,60.80
2018-02-27T17:19:58.479Z,60.99
2018-02-27T17:21:00.275Z,61.08
2018-02-27T17:22:02.147Z,61.08
2018-02-27T17:23:03.998Z,61.08
2018-02-27T17:24:18.180Z,60.89
2018-02-27T17:25:20.047Z,60.80
2018-02-27T17:26:21.892Z,60.77
2018-02-27T17:27:23.745Z,60.68
2018-02-27T17:28:25.538Z,61.24
2018-02-27T17:29:27.344Z,61.62
2018-02-27T17:30:29.219Z,61.71
2018-02-27T17:31:31.016Z,62.28
2018-02-27T17:32:32.855Z,62.28
2018-02-27T17:33:47.033Z,62.18
2018-02-27T17:34:48.865Z,62.47
2018-02-27T17:35:50.734Z,62.28
2018-02-27T17:36:52.599Z,62.37
2018-02-27T17:37:54.432Z,62.37
2018-02-27T17:38:56.344Z,62.56
2018-02-27T17:39:58.100Z,62.37
2018-02-27T17:40:59.973Z,63.13
2018-02-27T17:42:01.841Z,62.94
2018-02-27T17:43:16.025Z,63.03
2018-02-27T17:44:17.877Z,62.75
2018-02-27T17:45:19.751Z,62.94
2018-02-27T17:46:21.614Z,63.32
2018-02-27T17:47:23.411Z,63.41
2018-02-27T17:48:25.196Z,63.41
2018-02-27T17:49:27.068Z,63.41
2018-02-27T17:50:28.931Z,63.41
2018-02-27T17:51:30.784Z,63.50
2018-02-27T17:52:44.919Z,63.69
2018-02-27T17:53:46.779Z,63.32
2018-02-27T17:54:48.647Z,63.32
2018-02-27T17:55:50.515Z,63.60
2018-02-27T17:56:52.312Z,63.50
2018-02-27T17:57:54.124Z,63.32
2018-02-27T17:58:55.990Z,63.69
2018-02-27T17:59:57.926Z,63.32
2018-02-27T18:00:59.797Z,63.32
2018-02-27T18:02:13.959Z,63.32
2018-02-27T18:03:16.307Z,63.60
2018-02-27T18:04:18.175Z,63.41
2018-02-27T18:05:20.045Z,63.41
2018-02-27T18:06:21.858Z,63.41
2018-02-27T18:07:23.665Z,63.22
2018-02-27T18:08:25.528Z,63.50
2018-02-27T18:09:27.389Z,63.60
2018-02-27T18:10:29.260Z,63.41
2018-02-27T18:11:43.378Z,63.41
2018-02-27T18:12:45.727Z,64.07
2018-02-27T18:13:47.589Z,63.69
2018-02-27T18:14:49.442Z,63.88
2018-02-27T18:15:51.252Z,64.26
2018-02-27T18:16:53.060Z,64.45
2018-02-27T18:17:54.935Z,64.16
2018-02-27T18:18:56.802Z,64.45
2018-02-27T18:19:58.675Z,64.35
2018-02-27T18:21:12.799Z,63.88
2018-02-27T18:22:15.204Z,63.69
2018-02-27T18:23:17.073Z,63.41
2018-02-27T18:24:18.921Z,63.60
2018-02-27T18:25:20.764Z,63.79
2018-02-27T18:26:22.552Z,63.98
2018-02-27T18:27:24.340Z,64.07
2018-02-27T18:28:26.216Z,64.45
2018-02-27T18:29:28.065Z,64.16
2018-02-27T18:30:42.291Z,63.98
2018-02-27T18:31:44.697Z,64.16
2018-02-27T18:32:46.554Z,64.16
2018-02-27T18:33:48.408Z,63.98
2018-02-27T18:34:50.227Z,63.41
2018-02-27T18:35:52.017Z,63.32
2018-02-27T18:36:53.869Z,63.41
2018-02-27T18:37:55.726Z,63.32
2018-02-27T18:38:57.595Z,62.84
2018-02-27T18:40:11.731Z,62.75
2018-02-27T18:41:13.579Z,62.94
2018-02-27T18:42:15.434Z,62.94
2018-02-27T18:43:17.303Z,62.84
2018-02-27T18:44:19.136Z,63.03
2018-02-27T18:45:20.897Z,62.94
2018-02-27T18:46:22.767Z,63.50
2018-02-27T18:47:24.617Z,63.32
2018-02-27T18:48:26.471Z,63.50
2018-02-27T18:49:40.606Z,63.41
2018-02-27T18:50:42.460Z,63.41
2018-02-27T18:51:44.305Z,63.41
2018-02-27T18:52:46.156Z,63.50
2018-02-27T18:53:47.942Z,63.41
2018-02-27T18:54:49.734Z,63.32
2018-02-27T18:55:51.603Z,62.94
2018-02-27T18:56:53.468Z,63.22
2018-02-27T18:57:55.324Z,62.47
2018-02-27T18:59:09.461Z,62.65
2018-02-27T19:00:11.312Z,62.56
2018-02-27T19:01:13.165Z,62.65
2018-02-27T19:02:15.018Z,61.71
2018-02-27T19:03:16.820Z,61.43
2018-02-27T19:04:18.611Z,61.43
2018-02-27T19:05:20.483Z,61.52
2018-02-27T19:06:22.348Z,61.90
2018-02-27T19:07:24.203Z,61.52
2018-02-27T19:08:38.378Z,61.62
2018-02-27T19:09:40.244Z,62.37
2018-02-27T19:10:42.093Z,62.28
2018-02-27T19:11:43.969Z,62.28
2018-02-27T19:12:45.790Z,62.37
2018-02-27T19:13:47.577Z,62.37
2018-02-27T19:14:49.430Z,62.65
2018-02-27T19:15:51.308Z,63.32
2018-02-27T19:16:53.175Z,62.47
2018-02-27T19:18:07.342Z,62.84
2018-02-27T19:19:09.209Z,62.37
2018-02-27T19:20:11.062Z,62.75
2018-02-27T19:21:12.941Z,62.18
2018-02-27T19:22:14.731Z,62.18
2018-02-27T19:23:16.520Z,62.37
2018-02-27T19:24:18.391Z,62.09
2018-02-27T19:25:20.261Z,62.09
2018-02-27T19:26:22.153Z,62.09
2018-02-27T19:27:36.233Z,62.37
2018-02-27T19:28:38.082Z,62.75
2018-02-27T19:29:39.934Z,63.13
2018-02-27T19:30:41.789Z,62.94
2018-02-27T19:31:43.569Z,63.22
2018-02-27T19:32:45.357Z,63.41
2018-02-27T19:33:47.215Z,63.88
2018-02-27T19:34:49.084Z,64.92
2018-02-27T19:35:50.940Z,65.58
2018-02-27T19:37:05.063Z,66.80
2018-02-27T19:38:06.937Z,68.12
2018-02-27T19:39:08.803Z,68.59
2018-02-27T19:40:10.659Z,69.63
2018-02-27T19:41:12.487Z,70.29
2018-02-27T19:42:14.271Z,70.29
2018-02-27T19:43:16.118Z,70.57
2018-02-27T19:44:18.005Z,70.29
2018-02-27T19:45:19.921Z,70.57
2018-02-27T19:46:34.086Z,70.67
2018-02-27T19:47:35.938Z,70.57
2018-02-27T19:48:37.789Z,70.48
2018-02-27T19:49:39.689Z,70.57
2018-02-27T19:50:41.525Z,69.91
2018-02-27T19:51:43.332Z,69.44
2018-02-27T19:52:45.201Z,69.72
2018-02-27T19:53:47.086Z,69.91
2018-02-27T19:54:48.974Z,69.63
2018-02-27T19:56:03.149Z,70.10
2018-02-27T19:57:05.030Z,70.29
2018-02-27T19:58:06.896Z,70.86
